Airport Name : Kagoshima

Other Name : Kagoshima

ICAO : RJFK

IATA : KOJ

FAA :

Latitude : 31.803397

Longitude : 130.719408

Country : Japan

Local Date and Time : 1/23/2018 12:42:00 AM

 

TAF (Terminal Aerodrome Forecast)

TAF RJFK 221105Z 2212/2318 34006KT 9999 FEW015 SCT020 BECMG 2222/2300 32018KT TEMPO 2300/2309 32020G30KT BECMG 2312/2315 31008KT

 

METAR (METeorological Aerodrome Report)

RJFK 221200Z 31007KT 9999 FEW010 04/01 Q1014 RMK 1CU010 A2997